Time;durP1;ratioP1;P1;durP2;ratioP2;P2;SDS_P1;SDS_P2;PMS_P1;PMS_P2;Temp;Humidity;BMP_temperature;BMP_pressure;BME280_temperature;BME280_humidity;BME280_pressure;Samples;Min_cycle;Max_cycle;Signal;HPM_P1;HPM_P2
2022/10/25 04:01:17;;;;;;;3.20;2.53;;;12.10;99.90;;;;;;5584329;23;20514;-65
2022/10/25 04:03:44;;;;;;;6.07;2.70;;;12.10;99.90;;;;;;4975349;28;20454;-65
2022/10/25 04:06:11;;;;;;;3.20;2.80;;;12.10;99.90;;;;;;4975413;28;20953;-66
2022/10/25 04:08:38;;;;;;;5.20;2.70;;;12.20;99.90;;;;;;4975418;28;20458;-67
2022/10/25 04:11:05;;;;;;;2.60;2.47;;;12.20;99.90;;;;;;4975158;28;20479;-66
2022/10/25 04:13:31;;;;;;;3.60;2.43;;;12.20;99.90;;;;;;4975250;28;20454;-66
2022/10/25 04:15:58;;;;;;;6.20;2.70;;;12.20;99.90;;;;;;4975145;28;20458;-66
2022/10/25 04:18:26;;;;;;;3.63;2.93;;;12.20;99.90;;;;;;4975044;28;20482;-66
2022/10/25 04:20:52;;;;;;;3.87;2.43;;;12.10;99.90;;;;;;4974962;28;20665;-66
2022/10/25 04:23:19;;;;;;;4.63;2.90;;;12.10;99.90;;;;;;4974931;28;20946;-66
2022/10/25 04:25:46;;;;;;;6.50;3.20;;;12.10;99.90;;;;;;4975081;28;20455;-66
2022/10/25 04:28:12;;;;;;;5.43;3.20;;;12.10;99.90;;;;;;4974895;28;20502;-66
2022/10/25 04:30:39;;;;;;;4.77;2.80;;;12.10;99.90;;;;;;4974871;28;20534;-66
2022/10/25 04:33:06;;;;;;;4.03;3.03;;;12.10;99.90;;;;;;4974989;28;20537;-66
2022/10/25 04:35:34;;;;;;;4.77;2.90;;;12.10;99.90;;;;;;4974412;28;20454;-66
2022/10/25 04:38:00;;;;;;;5.60;2.70;;;12.10;99.90;;;;;;4974830;28;20474;-66
2022/10/25 04:40:27;;;;;;;5.30;2.73;;;12.10;99.90;;;;;;4974670;28;20458;-66
2022/10/25 04:42:54;;;;;;;2.93;2.67;;;12.20;99.90;;;;;;4974836;28;20454;-66
2022/10/25 04:45:20;;;;;;;5.57;3.83;;;12.20;99.90;;;;;;4974777;28;20977;-67
2022/10/25 04:47:47;;;;;;;3.47;2.93;;;12.20;99.90;;;;;;4975011;28;20462;-66
2022/10/25 04:50:13;;;;;;;3.17;2.70;;;12.10;99.90;;;;;;4974720;28;20454;-66
2022/10/25 04:52:41;;;;;;;6.03;2.90;;;12.10;99.90;;;;;;4974808;28;20454;-66
2022/10/25 04:55:09;;;;;;;6.87;3.13;;;12.10;99.90;;;;;;4974931;28;20455;-66
2022/10/25 04:57:35;;;;;;;4.27;3.20;;;12.10;99.90;;;;;;4974892;28;20549;-67
2022/10/25 05:00:02;;;;;;;6.73;3.37;;;12.10;99.90;;;;;;4974286;28;20942;-66
2022/10/25 05:02:29;;;;;;;11.67;3.47;;;12.10;99.90;;;;;;4974148;28;21018;-66
2022/10/25 05:04:55;;;;;;;4.80;3.60;;;12.10;99.90;;;;;;4974739;28;20462;-67
2022/10/25 05:07:22;;;;;;;3.83;2.87;;;12.10;99.90;;;;;;4974868;28;20459;-65
2022/10/25 05:09:50;;;;;;;7.43;2.73;;;12.10;99.90;;;;;;4978549;28;20528;-66
2022/10/25 05:12:17;;;;;;;5.97;3.93;;;12.10;99.90;;;;;;4983043;28;20483;-66
2022/10/25 05:14:44;;;;;;;3.77;3.47;;;12.00;99.90;;;;;;4983809;28;20521;-65
2022/10/25 05:17:10;;;;;;;3.80;3.20;;;12.00;99.90;;;;;;4982332;28;20476;-66
2022/10/25 05:19:37;;;;;;;8.63;3.37;;;12.00;99.90;;;;;;4975979;28;20450;-66
2022/10/25 05:22:04;;;;;;;3.87;3.20;;;12.00;99.90;;;;;;4975078;28;20478;-66
2022/10/25 05:24:30;;;;;;;7.57;3.70;;;12.00;99.90;;;;;;4975018;28;20455;-65
2022/10/25 05:26:58;;;;;;;9.23;3.90;;;11.90;99.90;;;;;;4974487;28;20509;-65
2022/10/25 05:29:25;;;;;;;3.13;2.93;;;11.90;99.90;;;;;;4974376;28;20517;-65
2022/10/25 05:31:52;;;;;;;5.93;3.57;;;11.90;99.90;;;;;;4974307;28;20479;-67
2022/10/25 05:34:18;;;;;;;4.87;3.53;;;11.90;99.90;;;;;;4975004;28;20459;-67
2022/10/25 05:36:45;;;;;;;4.67;3.30;;;11.90;99.90;;;;;;4974478;28;20458;-67
2022/10/25 05:39:12;;;;;;;7.37;3.40;;;11.90;99.90;;;;;;4973859;28;21001;-65
2022/10/25 05:41:38;;;;;;;5.00;3.73;;;11.90;99.90;;;;;;4974243;28;20506;-65
2022/10/25 05:44:06;;;;;;;7.40;3.87;;;11.90;99.90;;;;;;4975164;28;20509;-66
2022/10/25 05:46:33;;;;;;;3.67;3.43;;;11.90;99.90;;;;;;4975578;28;20857;-66
2022/10/25 05:49:00;;;;;;;7.07;3.63;;;11.90;99.90;;;;;;4977746;28;20461;-66
2022/10/25 05:51:28;;;;;;;8.87;3.80;;;11.90;99.90;;;;;;4977247;28;20981;-66
2022/10/25 05:53:56;;;;;;;6.23;3.57;;;11.90;99.90;;;;;;4977838;28;20818;-66
2022/10/25 05:56:26;;;;;;;8.33;3.80;;;11.90;99.90;;;;;;4977365;28;21012;-65
2022/10/25 05:58:55;;;;;;;10.23;3.83;;;11.90;99.90;;;;;;4977575;28;20467;-65
2022/10/25 06:01:24;;;;;;;7.87;4.90;;;12.00;99.90;;;;;;4977226;28;20579;-65
2022/10/25 06:03:52;;;;;;;3.70;3.30;;;12.10;99.90;;;;;;4977358;28;20573;-65
2022/10/25 06:06:20;;;;;;;7.40;3.80;;;12.20;99.90;;;;;;4977374;28;20462;-65
2022/10/25 06:08:47;;;;;;;8.90;3.70;;;12.40;99.90;;;;;;4978145;28;20767;-65
2022/10/25 06:11:16;;;;;;;6.80;3.10;;;12.40;99.90;;;;;;4977305;28;20485;-65
2022/10/25 06:13:43;;;;;;;7.50;3.00;;;12.40;99.90;;;;;;4977357;28;20502;-65
2022/10/25 06:16:12;;;;;;;5.80;3.10;;;12.40;99.90;;;;;;4976918;28;20459;-67
2022/10/25 06:18:40;;;;;;;5.90;2.70;;;12.40;99.90;;;;;;4977362;28;20483;-66
2022/10/25 06:21:09;;;;;;;6.13;2.90;;;12.50;99.90;;;;;;4976850;28;20891;-69
2022/10/25 06:23:36;;;;;;;6.40;3.80;;;12.50;99.90;;;;;;4977052;28;20459;-66
2022/10/25 06:26:08;;;;;;;3.47;2.93;;;12.50;99.90;;;;;;4977015;28;20506;-67
2022/10/25 06:28:35;;;;;;;5.17;3.20;;;12.50;99.90;;;;;;4977517;28;20556;-65
2022/10/25 06:31:03;;;;;;;4.90;2.90;;;12.60;99.90;;;;;;4976788;28;20479;-67
2022/10/25 06:33:29;;;;;;;6.27;2.90;;;12.60;99.90;;;;;;4977315;28;20799;-66
2022/10/25 06:35:58;;;;;;;5.63;2.80;;;12.60;99.90;;;;;;4976865;28;20450;-65
2022/10/25 06:38:26;;;;;;;5.93;3.27;;;12.70;99.90;;;;;;4976720;28;20485;-65
2022/10/25 06:40:58;;;;;;;5.03;2.87;;;12.70;99.90;;;;;;4976427;28;20814;-67
2022/10/25 06:43:25;;;;;;;5.13;3.23;;;12.70;99.90;;;;;;4976857;28;20522;-67
2022/10/25 06:45:52;;;;;;;8.10;3.20;;;12.80;99.90;;;;;;4976251;28;20950;-67
2022/10/25 06:48:18;;;;;;;3.53;2.83;;;12.80;99.90;;;;;;4976627;28;20521;-66
2022/10/25 06:50:45;;;;;;;4.87;2.73;;;12.90;99.90;;;;;;4976517;28;20475;-67
2022/10/25 06:53:13;;;;;;;6.53;3.30;;;12.90;99.90;;;;;;4976625;28;20459;-66
2022/10/25 06:55:41;;;;;;;4.77;3.40;;;13.00;99.90;;;;;;4976604;28;20513;-67
2022/10/25 06:58:07;;;;;;;3.57;2.60;;;13.00;99.90;;;;;;4976134;28;20501;-67
2022/10/25 07:00:34;;;;;;;5.97;2.70;;;13.20;99.90;;;;;;4976305;28;20832;-66
2022/10/25 07:03:01;;;;;;;2.97;2.77;;;13.40;99.90;;;;;;4976550;28;20506;-67
2022/10/25 07:05:27;;;;;;;6.50;2.83;;;13.70;99.90;;;;;;4976455;28;20509;-66
2022/10/25 07:07:54;;;;;;;3.50;2.43;;;13.80;99.90;;;;;;4976591;28;20459;-66
2022/10/25 07:10:22;;;;;;;4.50;2.77;;;13.90;99.90;;;;;;4976876;28;20934;-66
2022/10/25 07:12:49;;;;;;;4.43;2.33;;;14.00;99.90;;;;;;4976393;28;20454;-66
2022/10/25 07:15:15;;;;;;;4.10;2.63;;;14.00;99.90;;;;;;4976509;28;20459;-66
2022/10/25 07:17:42;;;;;;;3.90;3.40;;;14.10;99.90;;;;;;4976407;28;20461;-66
2022/10/25 07:20:10;;;;;;;5.97;2.40;;;14.20;99.90;;;;;;4976407;28;20450;-66
2022/10/25 07:22:36;;;;;;;5.97;2.20;;;14.40;99.90;;;;;;4975988;28;20548;-66
2022/10/25 07:25:04;;;;;;;5.80;2.60;;;15.10;99.90;;;;;;4976054;28;20462;-66
2022/10/25 07:27:32;;;;;;;2.30;2.10;;;15.90;99.90;;;;;;4975936;28;20462;-67
2022/10/25 07:29:59;;;;;;;5.77;2.60;;;16.70;99.90;;;;;;4975684;28;20549;-68
2022/10/25 07:32:26;;;;;;;6.23;2.47;;;17.30;99.90;;;;;;4975529;28;20982;-66
2022/10/25 07:34:52;;;;;;;8.00;2.80;;;17.60;99.90;;;;;;4975963;28;20459;-66
2022/10/25 07:37:19;;;;;;;5.53;2.73;;;17.60;99.90;;;;;;4976022;28;20458;-67
2022/10/25 07:39:45;;;;;;;3.63;2.03;;;18.00;99.90;;;;;;4977670;28;20489;-66
2022/10/25 07:42:12;;;;;;;4.80;2.30;;;18.80;99.90;;;;;;4976045;28;20482;-67
2022/10/25 07:44:40;;;;;;;5.40;2.50;;;19.80;99.90;;;;;;4975460;28;20885;-67
2022/10/25 07:47:07;;;;;;;7.03;3.83;;;20.90;99.90;;;;;;4975805;28;20571;-67
2022/10/25 07:49:35;;;;;;;7.27;3.90;;;22.00;99.90;;;;;;4975653;28;20454;-67
2022/10/25 07:52:02;;;;;;;4.07;3.63;;;22.90;99.90;;;;;;4975623;28;20569;-68
2022/10/25 07:54:28;;;;;;;4.60;3.20;;;23.80;99.90;;;;;;4975633;28;20455;-67
2022/10/25 07:56:55;;;;;;;4.30;3.07;;;24.60;99.90;;;;;;4975348;28;20529;-68
2022/10/25 07:59:21;;;;;;;2.80;2.27;;;25.30;99.90;;;;;;4974996;28;20989;-68
2022/10/25 08:01:49;;;;;;;3.60;2.80;;;25.80;99.90;;;;;;4974903;28;20997;-67
2022/10/25 08:04:16;;;;;;;5.87;3.00;;;26.30;99.90;;;;;;4975067;28;20942;-67
2022/10/25 08:06:43;;;;;;;6.87;3.17;;;26.60;99.30;;;;;;4975394;28;20463;-68
2022/10/25 08:09:10;;;;;;;2.70;2.23;;;26.70;96.20;;;;;;4974339;28;20871;-67
2022/10/25 08:11:36;;;;;;;5.63;3.13;;;27.00;95.90;;;;;;4975149;28;20879;-67
2022/10/25 08:14:03;;;;;;;4.63;2.70;;;27.10;97.20;;;;;;4975242;28;20830;-67
2022/10/25 08:16:30;;;;;;;5.10;3.00;;;27.40;95.30;;;;;;4975015;28;20486;-68
2022/10/25 08:18:58;;;;;;;6.57;3.70;;;27.50;93.50;;;;;;4975029;28;20478;-68
2022/10/25 08:21:24;;;;;;;2.73;2.53;;;27.70;93.70;;;;;;4975085;28;20526;-68
2022/10/25 08:23:51;;;;;;;4.97;2.70;;;28.00;91.10;;;;;;4974968;28;20459;-68
2022/10/25 08:26:22;;;;;;;4.87;2.53;;;28.30;90.40;;;;;;4976005;28;20463;-70
2022/10/25 08:28:51;;;;;;;4.20;2.43;;;27.30;91.60;;;;;;4975060;28;20435;-68
2022/10/25 08:31:18;;;;;;;4.70;2.40;;;27.50;91.30;;;;;;4974560;28;20876;-67
2022/10/25 08:33:44;;;;;;;3.30;2.97;;;28.00;89.80;;;;;;4974883;28;20773;-68
2022/10/25 08:36:12;;;;;;;2.73;2.53;;;28.20;88.60;;;;;;4974564;28;20462;-68
2022/10/25 08:38:39;;;;;;;4.30;2.97;;;28.10;87.20;;;;;;4974876;28;20525;-69
2022/10/25 08:41:13;;;;;;;3.90;2.40;;;28.30;89.00;;;;;;4974797;28;20479;-68
2022/10/25 08:44:07;;;;;;;2.63;2.43;;;28.80;87.50;;;;;;4974949;28;20443;-68
2022/10/25 08:46:39;;;;;;;5.47;2.20;;;28.60;83.80;;;;;;4975028;28;20559;-68
2022/10/25 08:49:14;;;;;;;6.90;2.43;;;29.00;85.20;;;;;;4974661;28;20923;-67
2022/10/25 08:51:45;;;;;;;4.87;2.50;;;29.40;83.10;;;;;;4974950;28;20470;-68
2022/10/25 08:54:22;;;;;;;4.13;2.20;;;29.50;82.70;;;;;;4974756;28;20442;-68
2022/10/25 08:56:51;;;;;;;6.83;2.40;;;29.90;79.70;;;;;;4974422;28;20985;-68
2022/10/25 08:59:25;;;;;;;4.27;2.03;;;30.30;79.20;;;;;;4974330;28;20509;-67
2022/10/25 09:01:56;;;;;;;6.27;2.70;;;30.80;77.40;;;;;;4974320;28;20485;-67
2022/10/25 09:04:22;;;;;;;3.30;1.70;;;31.10;74.60;;;;;;4975558;28;20505;-68
2022/10/25 09:06:58;;;;;;;6.60;2.20;;;31.10;73.00;;;;;;4974621;28;20458;-68
2022/10/25 09:09:32;;;;;;;3.17;1.90;;;31.50;72.70;;;;;;4975397;28;20473;-68
2022/10/25 09:12:11;;;;;;;8.67;2.10;;;31.40;69.70;;;;;;4974428;28;21019;-67
2022/10/25 09:14:45;;;;;;;4.10;2.30;;;31.30;70.60;;;;;;4974613;28;20442;-67
2022/10/25 09:17:18;;;;;;;5.60;2.03;;;31.10;69.30;;;;;;4974804;28;20438;-67
2022/10/25 09:20:00;;;;;;;3.03;2.00;;;30.90;68.90;;;;;;4974692;28;20466;-68
2022/10/25 09:22:30;;;;;;;4.67;2.40;;;31.10;69.40;;;;;;4978287;28;20474;-68
2022/10/25 09:25:01;;;;;;;3.77;1.73;;;30.90;67.80;;;;;;4978293;28;20559;-68
2022/10/25 09:27:34;;;;;;;3.43;1.93;;;30.90;69.10;;;;;;4978302;28;20438;-68
2022/10/25 09:30:03;;;;;;;5.50;2.00;;;30.80;68.50;;;;;;4978244;28;20442;-67
2022/10/25 09:32:37;;;;;;;5.03;1.60;;;30.90;68.00;;;;;;4978105;28;20478;-68
2022/10/25 09:35:05;;;;;;;2.60;2.20;;;30.90;69.00;;;;;;4977840;28;20785;-67
2022/10/25 09:37:40;;;;;;;2.37;1.80;;;30.90;68.50;;;;;;4978017;28;20458;-67
2022/10/25 09:40:12;;;;;;;4.00;2.13;;;30.60;67.60;;;;;;4982793;28;20469;-69
2022/10/25 09:42:44;;;;;;;1.40;1.30;;;30.30;69.00;;;;;;4985672;28;20449;-67
2022/10/25 09:45:18;;;;;;;6.70;2.10;;;30.20;68.30;;;;;;4980823;28;20497;-67
2022/10/25 09:47:50;;;;;;;3.63;2.03;;;29.70;69.50;;;;;;4978173;28;20508;-67
2022/10/25 09:50:24;;;;;;;2.70;1.80;;;29.40;70.90;;;;;;4978025;28;20830;-67
2022/10/25 09:53:00;;;;;;;6.13;1.77;;;29.30;71.20;;;;;;4977949;28;20493;-67
2022/10/25 09:55:34;;;;;;;2.83;1.47;;;29.30;72.20;;;;;;4977811;28;20450;-67
2022/10/25 09:58:01;;;;;;;4.43;2.07;;;29.20;73.80;;;;;;4977909;28;20519;-68
2022/10/25 10:00:28;;;;;;;3.90;2.00;;;29.20;71.80;;;;;;4977017;28;20483;-67
2022/10/25 10:02:55;;;;;;;2.50;2.00;;;29.30;73.40;;;;;;4977704;28;20443;-67
2022/10/25 10:05:22;;;;;;;2.83;1.80;;;29.50;71.90;;;;;;4977669;28;20451;-68
2022/10/25 10:07:50;;;;;;;8.03;2.10;;;29.30;70.30;;;;;;4977554;28;20450;-68
2022/10/25 10:10:22;;;;;;;5.40;2.77;;;28.50;72.40;;;;;;4977457;28;20490;-67
2022/10/25 10:12:55;;;;;;;2.83;2.03;;;27.80;74.30;;;;;;4977387;28;20489;-68
2022/10/25 10:15:26;;;;;;;3.23;1.83;;;26.70;77.20;;;;;;4977373;28;20435;-68
2022/10/25 10:18:30;;;;;;;4.00;2.40;;;26.30;80.70;;;;;;4977331;28;20430;-68
2022/10/25 10:21:03;;;;;;;3.23;1.93;;;26.20;80.90;;;;;;4977139;28;20481;-67
2022/10/25 10:23:32;;;;;;;3.37;1.80;;;26.60;81.40;;;;;;4977303;28;20821;-67
2022/10/25 10:26:08;;;;;;;4.13;1.97;;;26.90;81.10;;;;;;4976697;28;20863;-67
2022/10/25 10:28:35;;;;;;;2.20;1.80;;;27.10;80.20;;;;;;4977164;28;20442;-67
2022/10/25 10:31:06;;;;;;;2.77;2.33;;;27.00;80.20;;;;;;4977048;28;20479;-67
2022/10/25 10:33:33;;;;;;;6.10;1.97;;;26.90;79.60;;;;;;4976014;28;20910;-67
2022/10/25 10:36:22;;;;;;;5.00;2.50;;;27.00;78.50;;;;;;4976699;28;20462;-68
2022/10/25 10:38:49;;;;;;;3.63;2.00;;;26.90;77.70;;;;;;4976816;28;20502;-68
2022/10/25 10:41:23;;;;;;;3.20;2.07;;;26.40;80.50;;;;;;4977393;28;20474;-68
2022/10/25 10:43:50;;;;;;;3.67;2.20;;;25.40;84.80;;;;;;4976941;28;20803;-67
2022/10/25 10:46:20;;;;;;;4.43;1.70;;;24.80;85.70;;;;;;4976821;28;20459;-68
2022/10/25 10:48:53;;;;;;;2.73;1.70;;;24.30;87.70;;;;;;4976680;28;20463;-68
2022/10/25 10:51:34;;;;;;;2.70;1.50;;;23.60;93.00;;;;;;4976559;28;20892;-68
2022/10/25 10:54:21;;;;;;;3.47;1.60;;;23.20;91.00;;;;;;4976650;28;20439;-67
2022/10/25 10:56:58;;;;;;;3.03;1.23;;;22.50;92.10;;;;;;4976280;28;20922;-67
2022/10/25 10:59:38;;;;;;;2.90;1.20;;;22.10;93.90;;;;;;4975960;28;21044;-67
2022/10/25 11:02:24;;;;;;;3.33;1.23;;;21.60;95.40;;;;;;4976138;28;20602;-67
2022/10/25 11:04:53;;;;;;;4.03;1.77;;;21.30;96.00;;;;;;4976429;28;20435;-67
2022/10/25 11:07:34;;;;;;;5.53;1.60;;;21.10;98.70;;;;;;4976297;28;20507;-67
2022/10/25 11:10:24;;;;;;;2.80;2.00;;;20.80;99.90;;;;;;4976893;28;20906;-68
2022/10/25 11:13:10;;;;;;;7.63;1.70;;;20.40;99.90;;;;;;4976861;28;20450;-68
2022/10/25 11:16:02;;;;;;;2.80;1.70;;;20.00;99.90;;;;;;4976721;28;20450;-67
2022/10/25 11:18:39;;;;;;;4.90;2.20;;;19.70;99.90;;;;;;4976317;28;20439;-67
2022/10/25 11:21:13;;;;;;;4.57;1.57;;;19.40;99.90;;;;;;4975965;28;20482;-67
2022/10/25 11:23:51;;;;;;;3.60;2.00;;;19.20;99.90;;;;;;4975982;28;20530;-68
2022/10/25 11:26:26;;;;;;;2.30;1.60;;;19.00;99.90;;;;;;4976068;28;20834;-67
2022/10/25 11:29:02;;;;;;;2.47;1.70;;;18.80;99.90;;;;;;4975920;28;20442;-67
2022/10/25 11:31:43;;;;;;;6.07;2.33;;;18.70;99.90;;;;;;4975711;28;20474;-67
2022/10/25 11:34:19;;;;;;;6.83;2.17;;;18.60;99.90;;;;;;4975843;28;20493;-68
2022/10/25 11:36:58;;;;;;;5.17;2.20;;;18.50;99.90;;;;;;4975980;28;20626;-67
2022/10/25 11:39:50;;;;;;;6.57;2.43;;;18.50;99.90;;;;;;4975527;28;20493;-67
2022/10/25 11:42:44;;;;;;;7.03;2.70;;;18.50;99.90;;;;;;4972747;28;20479;-67
2022/10/25 11:45:26;;;;;;;4.10;1.93;;;18.60;99.90;;;;;;4974696;28;20858;-67
2022/10/25 11:48:04;;;;;;;4.37;2.30;;;18.70;99.90;;;;;;4975419;28;20434;-67
2022/10/25 11:50:40;;;;;;;3.73;2.20;;;18.60;99.90;;;;;;4975639;28;20435;-67
2022/10/25 11:53:22;;;;;;;5.00;2.20;;;18.60;99.90;;;;;;4975604;28;20442;-67
2022/10/25 11:55:54;;;;;;;6.60;2.33;;;18.60;99.90;;;;;;4975684;28;20522;-67
2022/10/25 11:58:32;;;;;;;6.87;1.93;;;18.70;99.90;;;;;;4975521;28;20439;-67
2022/10/25 12:01:09;;;;;;;6.77;2.10;;;18.90;99.90;;;;;;4975080;28;20490;-67
2022/10/25 12:03:56;;;;;;;7.93;3.67;;;19.20;99.90;;;;;;4975423;28;20442;-67
2022/10/25 12:06:33;;;;;;;5.10;1.63;;;19.30;99.90;;;;;;4975408;28;20494;-67
2022/10/25 12:09:09;;;;;;;5.13;1.83;;;19.40;99.90;;;;;;4975474;28;20447;-67
2022/10/25 12:11:43;;;;;;;2.10;1.40;;;19.50;99.90;;;;;;4975810;28;20831;-67
2022/10/25 12:14:13;;;;;;;2.93;1.80;;;19.50;99.90;;;;;;4975242;28;20442;-66
2022/10/25 12:16:43;;;;;;;3.60;1.70;;;19.50;99.90;;;;;;4975182;28;20440;-66
2022/10/25 12:19:18;;;;;;;3.43;1.87;;;19.60;99.90;;;;;;4975064;28;20514;-67
2022/10/25 12:21:49;;;;;;;2.50;1.50;;;19.60;99.90;;;;;;4975167;28;20485;-67
2022/10/25 12:24:20;;;;;;;3.57;1.43;;;19.60;99.90;;;;;;4975156;28;20462;-67
2022/10/25 12:26:49;;;;;;;2.97;1.30;;;19.80;99.90;;;;;;4975219;28;20439;-67
2022/10/25 12:29:20;;;;;;;3.20;1.50;;;19.70;99.90;;;;;;4975074;28;20466;-67
2022/10/25 12:31:55;;;;;;;4.37;1.50;;;19.60;99.90;;;;;;4975029;28;20486;-67
2022/10/25 12:34:27;;;;;;;6.87;1.87;;;19.50;99.90;;;;;;4975902;28;20442;-67
2022/10/25 12:36:57;;;;;;;2.23;1.63;;;19.60;99.90;;;;;;4981297;28;20443;-67
2022/10/25 12:39:28;;;;;;;8.90;1.80;;;19.60;99.90;;;;;;4980052;28;20930;-68
2022/10/25 12:41:59;;;;;;;4.90;1.90;;;19.80;99.90;;;;;;4975232;28;20545;-68
2022/10/25 12:44:42;;;;;;;3.97;1.47;;;19.90;99.90;;;;;;4975180;28;20844;-68
2022/10/25 12:47:37;;;;;;;3.67;1.70;;;20.20;99.90;;;;;;4975500;28;20438;-67
2022/10/25 12:50:24;;;;;;;4.20;1.50;;;20.70;99.90;;;;;;4975213;28;20906;-67
2022/10/25 12:53:27;;;;;;;3.20;1.27;;;20.90;99.90;;;;;;4975478;28;20965;-68
2022/10/25 12:56:02;;;;;;;3.10;1.50;;;21.10;99.90;;;;;;4974905;28;20520;-68
2022/10/25 12:58:47;;;;;;;4.53;1.40;;;21.30;99.90;;;;;;4979558;28;20926;-68
2022/10/25 13:01:30;;;;;;;1.87;1.20;;;21.50;99.90;;;;;;4978521;28;21036;-68
2022/10/25 13:04:37;;;;;;;4.40;1.67;;;21.60;99.90;;;;;;4978736;28;20502;-67
2022/10/25 13:07:06;;;;;;;4.47;1.60;;;21.60;99.90;;;;;;4970653;28;20462;-67
2022/10/25 13:09:35;;;;;;;1.60;1.50;;;21.60;99.90;;;;;;4978528;28;20500;-67
2022/10/25 13:12:05;;;;;;;1.83;1.33;;;21.80;99.90;;;;;;4978473;28;20466;-67
2022/10/25 13:14:34;;;;;;;4.20;1.80;;;21.90;99.90;;;;;;4978287;28;20950;-67
2022/10/25 13:17:38;;;;;;;2.60;1.53;;;21.90;99.90;;;;;;4978422;28;20479;-67
2022/10/25 13:20:43;;;;;;;4.63;2.00;;;22.00;99.90;;;;;;4978328;28;20478;-67
2022/10/25 13:23:57;;;;;;;3.33;1.33;;;22.00;99.90;;;;;;4978474;28;20454;-67
2022/10/25 13:26:27;;;;;;;1.80;1.20;;;22.00;99.90;;;;;;4978287;28;20457;-67
2022/10/25 13:28:55;;;;;;;3.67;1.43;;;22.00;99.90;;;;;;4978389;28;20545;-67
2022/10/25 13:32:04;;;;;;;3.77;1.47;;;22.00;99.90;;;;;;4978387;28;20497;-68
2022/10/25 13:34:35;;;;;;;4.33;1.40;;;22.10;99.90;;;;;;4978273;28;20446;-67
2022/10/25 13:37:04;;;;;;;3.43;1.50;;;22.10;99.90;;;;;;4978217;28;20443;-68
2022/10/25 13:39:36;;;;;;;2.60;1.40;;;22.10;99.90;;;;;;4978049;28;20458;-68
2022/10/25 13:42:10;;;;;;;3.07;1.60;;;21.90;99.90;;;;;;4978012;28;20474;-68
2022/10/25 13:44:52;;;;;;;2.80;1.13;;;22.00;99.90;;;;;;4978887;28;20504;-68
2022/10/25 13:47:33;;;;;;;4.77;1.50;;;22.00;99.90;;;;;;4977526;28;20922;-67
2022/10/25 13:50:00;;;;;;;5.03;1.67;;;22.10;99.90;;;;;;4977971;28;20446;-68
2022/10/25 13:52:30;;;;;;;3.07;1.20;;;22.10;99.90;;;;;;4977734;28;20478;-68
2022/10/25 13:55:00;;;;;;;3.10;1.60;;;22.10;99.90;;;;;;4977948;28;20459;-68
2022/10/25 13:57:53;;;;;;;2.63;1.20;;;22.00;99.90;;;;;;4977404;28;20942;-68
2022/10/25 14:00:34;;;;;;;4.00;1.30;;;22.00;99.90;;;;;;4977245;28;20982;-68
2022/10/25 14:03:24;;;;;;;3.37;1.23;;;22.00;99.90;;;;;;4977664;28;20497;-68
2022/10/25 14:06:25;;;;;;;4.10;1.40;;;21.90;99.90;;;;;;4977593;28;20443;-69
2022/10/25 14:09:00;;;;;;;3.40;1.30;;;21.80;99.90;;;;;;4977229;28;20469;-68
2022/10/25 14:11:38;;;;;;;2.10;1.37;;;21.60;99.90;;;;;;4977381;28;20525;-69
2022/10/25 14:14:22;;;;;;;2.87;1.53;;;21.50;99.90;;;;;;4977509;28;20485;-68
2022/10/25 14:17:00;;;;;;;7.03;1.60;;;21.30;99.90;;;;;;4976985;28;20906;-69
2022/10/25 14:19:34;;;;;;;2.57;1.23;;;21.30;99.90;;;;;;4977679;28;20442;-63
2022/10/25 14:22:02;;;;;;;4.00;1.60;;;21.20;99.90;;;;;;4977838;28;20486;-68
2022/10/25 14:24:30;;;;;;;2.47;1.30;;;21.20;99.90;;;;;;4977393;28;20546;-69
2022/10/25 14:27:00;;;;;;;6.80;1.37;;;21.20;99.90;;;;;;4977386;28;20807;-68
2022/10/25 14:29:29;;;;;;;2.27;1.03;;;21.00;99.90;;;;;;4977243;28;20439;-68
2022/10/25 14:31:56;;;;;;;3.60;1.20;;;21.00;99.90;;;;;;4976744;28;21004;-68
2022/10/25 14:34:25;;;;;;;4.77;1.97;;;21.00;99.90;;;;;;4977038;28;20475;-68
2022/10/25 14:36:53;;;;;;;2.50;1.50;;;20.90;99.90;;;;;;4976876;28;20802;-68
2022/10/25 14:39:22;;;;;;;4.53;1.50;;;20.70;99.90;;;;;;4976819;28;20458;-69
2022/10/25 14:41:51;;;;;;;8.20;3.00;;;20.50;99.90;;;;;;4976562;28;20577;-68
2022/10/25 14:44:24;;;;;;;2.57;1.43;;;20.40;99.90;;;;;;4976507;28;20938;-69
2022/10/25 14:46:53;;;;;;;3.00;2.20;;;20.30;99.90;;;;;;4977388;28;20446;-68
2022/10/25 14:49:20;;;;;;;3.10;1.37;;;20.20;99.90;;;;;;4976757;28;20547;-69
2022/10/25 14:51:49;;;;;;;4.83;1.40;;;20.20;99.90;;;;;;4976593;28;20876;-68
2022/10/25 14:54:29;;;;;;;3.30;1.50;;;20.10;99.90;;;;;;4976674;28;20543;-69
2022/10/25 14:56:58;;;;;;;2.70;1.40;;;20.10;99.90;;;;;;4976695;28;20443;-68
2022/10/25 14:59:30;;;;;;;4.97;1.57;;;20.00;99.90;;;;;;4976557;28;20459;-69
2022/10/25 15:01:59;;;;;;;4.23;1.83;;;19.90;99.90;;;;;;4976437;28;20487;-68
2022/10/25 15:04:29;;;;;;;6.17;1.50;;;19.80;99.90;;;;;;4977241;28;20459;-69
2022/10/25 15:06:56;;;;;;;5.00;1.60;;;19.80;99.90;;;;;;4976403;28;20459;-68
2022/10/25 15:09:23;;;;;;;3.20;1.73;;;19.80;99.90;;;;;;4976328;28;20458;-68
2022/10/25 15:12:08;;;;;;;7.83;1.70;;;19.70;99.90;;;;;;4976245;28;20474;-68
2022/10/25 15:14:36;;;;;;;6.10;1.57;;;19.70;99.90;;;;;;4976566;28;20454;-68
2022/10/25 15:17:04;;;;;;;3.13;1.73;;;19.60;99.90;;;;;;4976359;28;20546;-68
2022/10/25 15:19:31;;;;;;;5.00;1.33;;;19.60;99.90;;;;;;4976330;28;20513;-69
2022/10/25 15:22:06;;;;;;;5.67;1.43;;;19.60;99.90;;;;;;4976043;28;20537;-69
2022/10/25 15:24:43;;;;;;;3.40;1.77;;;19.50;99.90;;;;;;4976144;28;20422;-68
2022/10/25 15:27:26;;;;;;;2.47;1.50;;;19.50;99.90;;;;;;4976130;28;20442;-68
2022/10/25 15:29:54;;;;;;;4.60;1.30;;;19.40;99.90;;;;;;4976079;28;20443;-69
2022/10/25 15:32:22;;;;;;;3.90;1.87;;;19.40;99.90;;;;;;4975941;28;20527;-69
2022/10/25 15:34:51;;;;;;;3.90;1.53;;;19.40;99.90;;;;;;4976068;28;20513;-68
2022/10/25 15:37:20;;;;;;;3.33;1.70;;;19.30;99.90;;;;;;4975838;28;20458;-68
2022/10/25 15:39:48;;;;;;;2.10;1.60;;;19.30;99.90;;;;;;4975602;28;20513;-68
2022/10/25 15:42:15;;;;;;;4.00;1.90;;;19.30;99.90;;;;;;4975593;28;20482;-68
2022/10/25 15:44:42;;;;;;;4.30;1.80;;;19.20;99.90;;;;;;4975379;28;21001;-69
2022/10/25 15:47:30;;;;;;;6.20;1.83;;;19.10;99.90;;;;;;4975401;28;20942;-69
2022/10/25 15:49:57;;;;;;;4.40;1.70;;;19.10;99.90;;;;;;4975556;28;20447;-68
2022/10/25 15:52:24;;;;;;;4.87;1.70;;;19.00;99.90;;;;;;4975481;28;20522;-68
2022/10/25 15:54:51;;;;;;;9.90;3.10;;;19.00;99.90;;;;;;4975993;28;20486;-69
2022/10/25 15:57:18;;;;;;;6.17;1.87;;;18.90;99.90;;;;;;4975122;28;20955;-69
2022/10/25 15:59:44;;;;;;;3.40;1.50;;;18.80;99.90;;;;;;4975259;28;20460;-69
2022/10/25 16:02:18;;;;;;;3.03;1.87;;;18.80;99.90;;;;;;4974977;28;20483;-68
2022/10/25 16:04:45;;;;;;;2.00;1.60;;;18.70;99.90;;;;;;4975389;28;20439;-67
2022/10/25 16:07:12;;;;;;;3.30;1.80;;;18.60;99.90;;;;;;4975330;28;20530;-67
2022/10/25 16:09:39;;;;;;;7.20;2.93;;;18.60;99.90;;;;;;4975436;28;20443;-67
2022/10/25 16:12:08;;;;;;;1.60;1.50;;;18.40;99.90;;;;;;4975305;28;20548;-67
2022/10/25 16:14:36;;;;;;;5.07;2.10;;;18.30;99.90;;;;;;4975256;28;20458;-67
2022/10/25 16:17:03;;;;;;;4.20;1.70;;;18.20;99.90;;;;;;4975094;28;20458;-67
2022/10/25 16:19:31;;;;;;;3.80;1.83;;;18.10;99.90;;;;;;4975057;28;20514;-67
2022/10/25 16:21:58;;;;;;;2.30;1.77;;;18.00;99.90;;;;;;4974859;28;20485;-67
2022/10/25 16:24:24;;;;;;;3.80;1.90;;;17.90;99.90;;;;;;4975131;28;20465;-67
2022/10/25 16:26:51;;;;;;;2.67;1.87;;;17.90;99.90;;;;;;4975040;28;20459;-67
2022/10/25 16:29:20;;;;;;;1.90;1.50;;;17.70;99.90;;;;;;4975010;28;20458;-67
2022/10/25 16:31:47;;;;;;;3.00;1.60;;;17.70;99.90;;;;;;4974712;28;20474;-67
2022/10/25 16:34:16;;;;;;;2.27;2.07;;;17.60;99.90;;;;;;4974870;28;20493;-67
2022/10/25 16:36:44;;;;;;;2.60;2.27;;;17.50;99.90;;;;;;4975086;28;20451;-67
2022/10/25 16:39:11;;;;;;;5.07;1.87;;;17.40;99.90;;;;;;4974853;28;20533;-66
2022/10/25 16:41:39;;;;;;;5.70;1.83;;;17.30;99.90;;;;;;4974866;28;20486;-67
2022/10/25 16:44:06;;;;;;;5.03;1.80;;;17.30;99.90;;;;;;4975254;28;20505;-64
2022/10/25 16:46:32;;;;;;;4.67;2.07;;;17.20;99.90;;;;;;4974768;28;20954;-63
2022/10/25 16:48:59;;;;;;;6.27;2.60;;;17.20;99.90;;;;;;4975202;28;20462;-64
2022/10/25 16:51:26;;;;;;;4.50;2.10;;;17.10;99.90;;;;;;4974976;28;20841;-65
2022/10/25 16:53:54;;;;;;;4.23;2.00;;;17.00;99.90;;;;;;4974686;28;20946;-65
2022/10/25 16:56:20;;;;;;;4.80;2.20;;;16.90;99.90;;;;;;4974996;28;20534;-65
2022/10/25 16:58:47;;;;;;;4.30;1.90;;;16.80;99.90;;;;;;4974789;28;20510;-66
2022/10/25 17:01:19;;;;;;;3.33;2.37;;;16.80;99.90;;;;;;4974479;28;20514;-66
2022/10/25 17:03:47;;;;;;;6.30;2.00;;;16.70;99.90;;;;;;4974860;28;20439;-66
2022/10/25 17:06:14;;;;;;;4.50;2.30;;;16.70;99.90;;;;;;4974956;28;20512;-66
2022/10/25 17:08:41;;;;;;;7.50;2.13;;;16.70;99.90;;;;;;4974473;28;20463;-66
2022/10/25 17:11:09;;;;;;;4.40;2.07;;;16.60;99.90;;;;;;4974503;28;20521;-66